ID Time Temp Humidity Light PM2.5 PM10 Voltage Extra Firmware Position Fcnt TTN version Gateways Distance RSSI LSNR Radiosettings
2026-05-04 00:47:55 13.625°C 41.1875% 3.37V v254 52.0682 / 5.11298 4516 ttn.v3 0.522km -93 -9.2 868.3MHz, SF10BW125, 4/5CR
2026-05-04 00:31:56 13.75°C 41.75% 3.37V v254 52.0682 / 5.11298 4515 ttn.v3 0.522km -105 -10.2 867.5MHz, SF10BW125, 4/5CR
2026-05-04 00:15:57 13.75°C 40.8125% 3.37V v254 52.0682 / 5.11298 4514 ttn.v3 0.522km -107 -7.2 868.1MHz, SF10BW125, 4/5CR
2026-05-03 23:59:57 13.75°C 40.4375% 3.37V v254 52.0682 / 5.11298 4513 ttn.v3 0.522km -106 -8.5 867.3MHz, SF10BW125, 4/5CR
2026-05-03 23:43:58 14°C 40.6875% 3.37V v254 52.0682 / 5.11298 4512 ttn.v3 0.522km -105 -9 868.5MHz, SF10BW125, 4/5CR
- -130 -16 868.5MHz, SF10BW125, 4/5CR
2026-05-03 23:27:58 14.1875°C 40.5625% 3.37V v254 52.0682 / 5.11298 4511 ttn.v3 0.522km -107 -16.2 867.1MHz, SF10BW125, 4/5CR
2026-05-03 23:11:58 14.4375°C 40.75% 3.37V v254 52.0682 / 5.11298 4510 ttn.v3 0.522km -106 -11.5 868.3MHz, SF10BW125, 4/5CR
2026-05-03 22:55:58 14.5625°C 41.625% 3.37V v254 52.0682 / 5.11298 4509 ttn.v3 4.059km -108 -10.5 867.9MHz, SF10BW125, 4/5CR
0.522km -107 -13.5 867.9MHz, SF10BW125, 4/5CR
2026-05-03 22:39:58 14.6875°C 41.625% 3.37V v254 52.0682 / 5.11298 4508 ttn.v3 0.522km -105 -6.5 868.1MHz, SF10BW125, 4/5CR
2026-05-03 22:23:58 14.8125°C 41.75% 3.37V v254 52.0682 / 5.11298 4507 ttn.v3 4.059km -105 -8 867.7MHz, SF10BW125, 4/5CR
0.522km -105 -8.2 867.7MHz, SF10BW125, 4/5CR
2026-05-03 22:07:58 14.875°C 41.625% 3.37V v254 52.0682 / 5.11298 4506 ttn.v3 0.522km -105 -8.2 868.5MHz, SF10BW125, 4/5CR
2026-05-03 21:51:58 15.0625°C 41.75% 3.37V v254 52.0682 / 5.11298 4505 ttn.v3 0.522km -105 -6.8 867.5MHz, SF10BW125, 4/5CR
2026-05-03 21:35:58 15.125°C 41.6875% 3.37V v254 52.0682 / 5.11298 4504 ttn.v3 0.522km -105 -11.5 868.3MHz, SF10BW125, 4/5CR
2026-05-03 21:19:58 15.25°C 41.5% 3.37V v254 52.0682 / 5.11298 4503 ttn.v3 0.522km -105 -5.5 867.3MHz, SF10BW125, 4/5CR
2026-05-03 21:03:58 15.375°C 41.25% 3.37V v254 52.0682 / 5.11298 4502 ttn.v3 0.522km -107 -11.2 868.1MHz, SF10BW125, 4/5CR
2026-05-03 20:47:58 15.6875°C 41.125% 3.37V v254 52.0682 / 5.11298 4501 ttn.v3 4.059km -109 -14.25 867.1MHz, SF10BW125, 4/5CR
2026-05-03 20:31:57 15.875°C 40.8125% 3.37V v254 52.0682 / 5.11298 4500 ttn.v3 0.522km -103 -8.5 868.5MHz, SF10BW125, 4/5CR
- -128 -13 868.5MHz, SF10BW125, 4/5CR
2026-05-03 20:15:57 16°C 41.25% 3.37V v254 52.0682 / 5.11298 4499 ttn.v3 4.059km -101 -8 867.9MHz, SF10BW125, 4/5CR
2026-05-03 20:00:40 16°C 40.9375% 3.37V v254 52.0682 / 5.11298 4498 ttn.v3 0.522km -103 -10.2 868.3MHz, SF12BW125, 4/5CR
2026-05-03 19:43:59 16.0625°C 40.625% 3.37V v254 52.0682 / 5.11295 4497 ttn.v3 4.061km -103 -8.75 867.7MHz, SF10BW125, 4/5CR
0.524km -107 -10.5 867.7MHz, SF10BW125, 4/5CR
2.431km -131 -15.75 867.7MHz, SF10BW125, 4/5CR
2026-05-03 19:27:58 16.125°C 39.6875% 3.37V v254 52.0682 / 5.11295 4496 ttn.v3 0.524km -107 -6.5 868.1MHz, SF10BW125, 4/5CR
2026-05-03 19:11:58 16°C 40% 3.37V v254 52.0682 / 5.11295 4495 ttn.v3 0.524km -104 -9 867.5MHz, SF10BW125, 4/5CR
2026-05-03 18:55:57 16.0625°C 38.9375% 3.37V v254 52.0682 / 5.11295 4494 ttn.v3 0.524km -104 -8 868.5MHz, SF10BW125, 4/5CR
2026-05-03 18:39:57 16.125°C 41.125% 3.37V v254 52.0682 / 5.11295 4493 ttn.v3 0.524km -106 -6.5 867.3MHz, SF10BW125, 4/5CR
4.061km -107 -9.75 867.3MHz, SF10BW125, 4/5CR
2026-05-03 18:23:57 16°C 40.375% 3.37V v254 52.0682 / 5.11295 4492 ttn.v3 0.524km -106 -9.8 868.3MHz, SF10BW125, 4/5CR
2026-05-03 18:07:56 16°C 40.3125% 3.37V v254 52.0682 / 5.11295 4491 ttn.v3 0.524km -106 -12.2 867.1MHz, SF10BW125, 4/5CR
4.061km -104 -14.5 867.1MHz, SF10BW125, 4/5CR
- -131 -15.5 867.1MHz, SF10BW125, 4/5CR
2026-05-03 17:51:56 15.25°C 41.1875% 3.37V v254 52.0682 / 5.11295 4490 ttn.v3 0.524km -107 -8.5 868.1MHz, SF10BW125, 4/5CR
2026-05-03 17:19:56 15.0625°C 42.125% 3.37V v254 52.0682 / 5.11295 4488 ttn.v3 0.524km -105 -9.2 868.5MHz, SF10BW125, 4/5CR
- -129 -15.25 868.5MHz, SF10BW125, 4/5CR
2026-05-03 17:03:56 15.875°C 39.625% 3.37V v254 52.0682 / 5.11295 4487 ttn.v3 0.524km -107 -9.8 867.7MHz, SF10BW125, 4/5CR
4.061km -102 -15.5 867.7MHz, SF10BW125, 4/5CR
2026-05-03 16:31:54 16.25°C 36.0625% 3.37V v254 52.0682 / 5.11295 4485 ttn.v3 0.524km -101 -11.8 867.5MHz, SF10BW125, 4/5CR
2026-05-03 16:15:54 16.3125°C 37.125% 3.37V v254 52.0682 / 5.11295 4484 ttn.v3 0.524km -106 -8.8 868.1MHz, SF10BW125, 4/5CR
2026-05-03 15:59:53 16.25°C 40.6875% 3.37V v254 52.0682 / 5.11295 4483 ttn.v3 0.524km -105 -9.5 867.3MHz, SF10BW125, 4/5CR
4.061km -104 -11.25 867.3MHz, SF10BW125, 4/5CR
- -131 -14.75 867.3MHz, SF10BW125, 4/5CR
2026-05-03 15:43:53 16.0625°C 41.375% 3.37V v254 52.0682 / 5.11295 4482 ttn.v3 0.524km -104 -11 868.5MHz, SF10BW125, 4/5CR
- -129 -14.25 868.5MHz, SF10BW125, 4/5CR
2026-05-03 15:27:53 15.8125°C 41.5% 3.37V v254 52.0682 / 5.11295 4481 ttn.v3 0.524km -107 -13 867.1MHz, SF10BW125, 4/5CR
2026-05-03 14:55:52 16°C 41.625% 3.37V v254 52.0682 / 5.11295 4479 ttn.v3 2.431km -128 -12.5 867.9MHz, SF10BW125, 4/5CR
4.061km -105 -14.25 867.9MHz, SF10BW125, 4/5CR
- -133 -18.5 867.9MHz, SF10BW125, 4/5CR
2026-05-03 14:39:52 15.8125°C 40.875% 3.37V v254 52.0682 / 5.11295 4478 ttn.v3 0.524km -105 -8.8 868.1MHz, SF10BW125, 4/5CR
2026-05-03 14:23:51 15.8125°C 40.9375% 3.37V v254 52.0682 / 5.11295 4477 ttn.v3 0.524km -106 -9.2 867.7MHz, SF10BW125, 4/5CR
2026-05-03 14:07:51 15.875°C 40.0625% 3.37V v254 52.0682 / 5.11295 4476 ttn.v3 0.524km -107 -12.8 868.5MHz, SF10BW125, 4/5CR
- -130 -15.75 868.5MHz, SF10BW125, 4/5CR
2026-05-03 13:51:50 16.3125°C 40.0625% 3.37V v254 52.0682 / 5.11295 4475 ttn.v3 0.524km -104 -12.2 867.5MHz, SF10BW125, 4/5CR
2026-05-03 13:35:50 16.4375°C 38.3125% 3.37V v254 52.0682 / 5.11295 4474 ttn.v3 0.524km -106 -9 868.3MHz, SF10BW125, 4/5CR
2026-05-03 13:19:49 16.5625°C 33.25% 3.37V v254 52.0682 / 5.11295 4473 ttn.v3 4.061km -105 -8.5 867.3MHz, SF10BW125, 4/5CR
0.524km -106 -9 867.3MHz, SF10BW125, 4/5CR
2026-05-03 13:03:48 16.9375°C 24.625% 3.37V v254 52.0682 / 5.11295 4472 ttn.v3 0.524km -106 -5 868.1MHz, SF10BW125, 4/5CR
2026-05-03 12:47:47 17.25°C 16.6875% 3.37V v254 52.0682 / 5.11295 4471 ttn.v3 0.524km -107 -8 867.1MHz, SF10BW125, 4/5CR
4.061km -110 -8 867.1MHz, SF10BW125, 4/5CR
2026-05-03 12:31:46 17.25°C 17.3125% 3.37V v254 52.0682 / 5.11295 4470 ttn.v3 0.524km -106 -6.8 868.5MHz, SF10BW125, 4/5CR
- -130 -16 868.5MHz, SF10BW125, 4/5CR
2026-05-03 12:15:45 17.4375°C 14.6875% 3.37V v254 52.0682 / 5.11295 4469 ttn.v3 0.524km -107 -4.5 867.9MHz, SF10BW125, 4/5CR
2026-05-03 11:59:43 17.5625°C 10.125% 3.37V v254 52.0682 / 5.11295 4468 ttn.v3 0.524km -106 -8 868.3MHz, SF10BW125, 4/5CR
2026-05-03 11:43:42 17.5625°C 11.8125% 3.37V v254 52.0682 / 5.11295 4467 ttn.v3 4.061km -92 -8.5 867.7MHz, SF10BW125, 4/5CR
0.524km -107 -9.8 867.7MHz, SF10BW125, 4/5CR
2026-05-03 11:27:41 17.375°C 16.9375% 3.37V v254 52.0682 / 5.11295 4466 ttn.v3 0.524km -107 -4 868.1MHz, SF10BW125, 4/5CR
2026-05-03 11:11:40 17.25°C 16.625% 3.37V v254 52.0682 / 5.11295 4465 ttn.v3 0.524km -105 -15.8 867.5MHz, SF10BW125, 4/5CR
2026-05-03 10:55:39 17.0625°C 26.1875% 3.37V v254 52.0682 / 5.11295 4464 ttn.v3 0.524km -106 -4.8 868.5MHz, SF10BW125, 4/5CR
- -132 -16.75 868.5MHz, SF10BW125, 4/5CR
2026-05-03 10:39:39 16.9375°C 31.125% 3.37V v254 52.0682 / 5.11295 4463 ttn.v3 4.061km -109 -6.25 867.3MHz, SF10BW125, 4/5CR
0.524km -105 -9.2 867.3MHz, SF10BW125, 4/5CR
2026-05-03 10:07:37 16.75°C 31.25% 3.37V v254 52.0682 / 5.11295 4461 ttn.v3 0.524km -109 -12 867.1MHz, SF10BW125, 4/5CR
- -132 -14.75 867.1MHz, SF10BW125, 4/5CR
2026-05-03 09:51:36 16.5°C 35.125% 3.37V v254 52.0682 / 5.11295 4460 ttn.v3 0.524km -106 -1.8 868.1MHz, SF10BW125, 4/5CR
2026-05-03 09:35:36 16.125°C 38.625% 3.37V v254 52.0682 / 5.11295 4459 ttn.v3 0.524km -107 -6.5 867.9MHz, SF10BW125, 4/5CR
2.431km -128 -12 867.9MHz, SF10BW125, 4/5CR
2026-05-03 09:19:36 15.8125°C 38.3125% 3.37V v254 52.0682 / 5.11295 4458 ttn.v3 - -129 -15.25 868.5MHz, SF10BW125, 4/5CR
2026-05-03 09:03:36 15.5625°C 39.4375% 3.37V v254 52.0682 / 5.11295 4457 ttn.v3 0.524km -106 -10.8 867.7MHz, SF10BW125, 4/5CR
4.061km -105 -11 867.7MHz, SF10BW125, 4/5CR
2026-05-03 08:47:36 15.25°C 39.875% 3.37V v254 52.0682 / 5.11295 4456 ttn.v3 0.524km -106 -11 868.3MHz, SF10BW125, 4/5CR
2026-05-03 08:31:36 15°C 40.1875% 3.37V v254 52.0682 / 5.11295 4455 ttn.v3 0.524km -104 -10.8 867.5MHz, SF10BW125, 4/5CR
2026-05-03 08:15:36 14.6875°C 40.625% 3.37V v254 52.0682 / 5.11295 4454 ttn.v3 0.524km -106 -4.2 868.1MHz, SF10BW125, 4/5CR
4.061km -105 -11.5 868.1MHz, SF10BW125, 4/5CR
2.431km -132 -17.5 868.1MHz, SF10BW125, 4/5CR
2026-05-03 07:59:37 14.4375°C 40.75% 3.37V v254 52.0682 / 5.11295 4453 ttn.v3 0.524km -106 -5.5 867.3MHz, SF10BW125, 4/5CR
2026-05-03 07:43:38 14.3125°C 40.875% 3.37V v254 52.0682 / 5.11295 4452 ttn.v3 0.524km -106 -11.8 868.5MHz, SF10BW125, 4/5CR
- -130 -16 868.5MHz, SF10BW125, 4/5CR
2026-05-03 07:27:38 14.125°C 40.875% 3.37V v254 52.0682 / 5.11295 4451 ttn.v3 4.061km -109 -9.5 867.1MHz, SF10BW125, 4/5CR
- -129 -12.5 867.1MHz, SF10BW125, 4/5CR
0.524km -107 -15.2 867.1MHz, SF10BW125, 4/5CR
2.431km -133 -16.5 867.1MHz, SF10BW125, 4/5CR
2026-05-03 07:11:39 14°C 41% 3.37V v254 52.0682 / 5.11295 4450 ttn.v3 0.524km -103 -10.5 868.3MHz, SF10BW125, 4/5CR
2026-05-03 06:55:39 14°C 41% 3.37V v254 52.0682 / 5.11295 4449 ttn.v3 0.524km -107 -11 867.9MHz, SF10BW125, 4/5CR
2026-05-03 06:39:40 14.0625°C 41.0625% 3.37V v254 52.0682 / 5.11295 4448 ttn.v3 0.524km -107 -3.5 868.1MHz, SF10BW125, 4/5CR
- -131 -16.25 868.1MHz, SF10BW125, 4/5CR
2026-05-03 06:23:41 14.125°C 41.1875% 3.37V v254 52.0682 / 5.11295 4447 ttn.v3 0.524km -105 -11.5 867.7MHz, SF10BW125, 4/5CR
4.061km -108 -13 867.7MHz, SF10BW125, 4/5CR
2026-05-03 06:07:41 14.125°C 41.25% 3.37V v254 52.0682 / 5.11295 4446 ttn.v3 0.524km -103 -13 868.5MHz, SF10BW125, 4/5CR
2026-05-03 05:51:42 14.1875°C 41.375% 3.37V v254 52.0682 / 5.11295 4445 ttn.v3 0.524km -105 -9 867.5MHz, SF10BW125, 4/5CR
2026-05-03 05:19:43 14.3125°C 41.5625% 3.37V v254 52.0682 / 5.11295 4443 ttn.v3 0.524km -113 -10.2 867.3MHz, SF10BW125, 4/5CR
2026-05-03 05:03:44 14.375°C 41.5% 3.37V v254 52.0682 / 5.11295 4442 ttn.v3 0.524km -109 -9.2 868.1MHz, SF10BW125, 4/5CR
2026-05-03 04:31:46 14.25°C 42% 3.37V v254 52.0682 / 5.11295 4440 ttn.v3 0.524km -106 -13.2 868.5MHz, SF10BW125, 4/5CR
- -131 -16.5 868.5MHz, SF10BW125, 4/5CR
2026-05-03 04:15:47 14.125°C 42.1875% 3.37V v254 52.0682 / 5.11295 4439 ttn.v3 4.061km -107 -13.75 867.9MHz, SF10BW125, 4/5CR
2026-05-03 03:43:48 14.0625°C 42.3125% 3.37V v254 52.0682 / 5.11295 4437 ttn.v3 0.524km -104 -7.5 867.7MHz, SF10BW125, 4/5CR
2026-05-03 03:27:49 14.0625°C 42.3125% 3.37V v254 52.0682 / 5.11295 4436 ttn.v3 0.524km -107 -10.8 868.1MHz, SF10BW125, 4/5CR
2026-05-03 03:11:50 14.25°C 42.5% 3.37V v254 52.0682 / 5.11295 4435 ttn.v3 0.524km -103 -13.5 867.5MHz, SF10BW125, 4/5CR
2026-05-03 02:55:50 14.3125°C 42.4375% 3.37V v254 52.0682 / 5.11295 4434 ttn.v3 0.524km -104 -12.5 868.5MHz, SF10BW125, 4/5CR
- -129 -14 868.5MHz, SF10BW125, 4/5CR
2026-05-03 02:39:51 14.3125°C 42.6875% 3.37V v254 52.0682 / 5.11295 4433 ttn.v3 0.524km -106 -11 867.3MHz, SF10BW125, 4/5CR
2026-05-03 02:07:52 14.375°C 42.6875% 3.37V v254 52.0682 / 5.11295 4431 ttn.v3 4.061km -107 -9.75 867.1MHz, SF10BW125, 4/5CR
- -127 -11.5 867.1MHz, SF10BW125, 4/5CR
0.524km -107 -12 867.1MHz, SF10BW125, 4/5CR
2026-05-03 01:51:52 14.5625°C 42.75% 3.37V v254 52.0682 / 5.11295 4430 ttn.v3 0.524km -107 -9.8 868.1MHz, SF10BW125, 4/5CR
2026-05-03 01:35:53 14.625°C 42.5625% 3.37V v254 52.0682 / 5.11295 4429 ttn.v3 4.061km -110 -8 867.9MHz, SF10BW125, 4/5CR
0.524km -107 -13.8 867.9MHz, SF10BW125, 4/5CR
- -130 -14 867.9MHz, SF10BW125, 4/5CR
2026-05-03 01:19:53 14.8125°C 42.875% 3.37V v254 52.0682 / 5.11295 4428 ttn.v3 0.524km -105 -11.8 868.5MHz, SF10BW125, 4/5CR
2026-05-03 01:03:53 15°C 42.5625% 3.37V v254 52.0682 / 5.11295 4427 ttn.v3 0.524km -118 -12.2 867.7MHz, SF10BW125, 4/5CR
2026-05-02 23:43:53 15.5°C 2.8125% 3.37V v254 52.0682 / 5.11295 4422 ttn.v3 - -128 -13 868.5MHz, SF10BW125, 4/5CR
2026-05-02 23:27:52 18.3125°C 69.375% 3.37V v254 52.0682 / 5.11295 4421 ttn.v3 4.061km -108 -7 867.1MHz, SF10BW125, 4/5CR
0.524km -107 -8.2 867.1MHz, SF10BW125, 4/5CR
2026-05-02 23:11:51 18.5625°C 64.5% 3.37V v254 52.0682 / 5.11295 4420 ttn.v3 0.524km -104 -5.5 868.3MHz, SF10BW125, 4/5CR
2026-05-02 22:55:49 18.625°C 63.6875% 3.37V v254 52.0682 / 5.11295 4419 ttn.v3 4.061km -108 -2.5 867.9MHz, SF10BW125, 4/5CR
0.524km -107 -9.2 867.9MHz, SF10BW125, 4/5CR
- -115 -15.75 867.9MHz, SF10BW125, 4/5CR
2026-05-02 22:39:47 18.9375°C 63.6875% 3.37V v254 52.0682 / 5.11295 4418 ttn.v3 0.524km -106 -5.5 868.1MHz, SF10BW125, 4/5CR
- -130 -15.5 868.1MHz, SF10BW125, 4/5CR
2026-05-02 22:23:45 19.3125°C 64.3125% 3.37V v254 52.0682 / 5.11295 4417 ttn.v3 0.524km -105 -8 867.7MHz, SF10BW125, 4/5CR
2.431km -130 -13.75 867.7MHz, SF10BW125, 4/5CR
2026-05-02 22:07:43 19.75°C 65.75% 3.37V v254 52.0682 / 5.11295 4416 ttn.v3 - -127 -12.75 868.5MHz, SF10BW125, 4/5CR
- -115 -15.75 868.5MHz, SF10BW125, 4/5CR
2026-05-02 21:51:41 20°C 64.75% 3.37V v254 52.0682 / 5.11295 4415 ttn.v3 0.524km -103 -9.8 867.5MHz, SF10BW125, 4/5CR
2026-05-02 21:35:39 20.3125°C 64.3125% 3.37V v254 52.0682 / 5.11295 4414 ttn.v3 0.524km -105 -6 868.3MHz, SF10BW125, 4/5CR
2026-05-02 21:19:37 20.5625°C 64.125% 3.37V v254 52.0682 / 5.11295 4413 ttn.v3 0.524km -104 -3 867.3MHz, SF10BW125, 4/5CR
2.431km -128 -12.5 867.3MHz, SF10BW125, 4/5CR
2026-05-02 21:03:34 21°C 62.625% 3.37V v254 52.0682 / 5.11295 4412 ttn.v3 0.524km -106 -1.2 868.1MHz, SF10BW125, 4/5CR
- -128 -12.25 868.1MHz, SF10BW125, 4/5CR
2026-05-02 20:47:31 21.5°C 62.25% 3.37V v254 52.0682 / 5.11295 4411 ttn.v3 0.524km -107 -8.2 867.1MHz, SF10BW125, 4/5CR
4.061km -107 -9.25 867.1MHz, SF10BW125, 4/5CR
2026-05-02 20:31:28 22°C 61.625% 3.37V v254 52.0682 / 5.11295 4410 ttn.v3 0.524km -106 -8.8 868.5MHz, SF10BW125, 4/5CR
- -130 -16 868.5MHz, SF10BW125, 4/5CR
2026-05-02 20:15:25 22.5°C 62.25% 3.37V v254 52.0682 / 5.11295 4409 ttn.v3 0.524km -107 -8.2 867.9MHz, SF10BW125, 4/5CR
4.061km -110 -14.5 867.9MHz, SF10BW125, 4/5CR
2026-05-02 19:59:21 22.8125°C 61.25% 3.37V v254 52.0682 / 5.11295 4408 ttn.v3 0.524km -105 -6 868.3MHz, SF10BW125, 4/5CR
2026-05-02 19:43:17 23.5625°C 59.75% 3.37V v254 52.0682 / 5.11295 4407 ttn.v3 0.524km -105 -6.2 867.7MHz, SF10BW125, 4/5CR
2026-05-02 19:27:13 24.0625°C 59.5% 3.37V v254 52.0682 / 5.11295 4406 ttn.v3 0.524km -105 -2.5 868.1MHz, SF10BW125, 4/5CR
2026-05-02 18:55:04 24.1875°C 56.125% 3.37V v254 52.0682 / 5.11295 4404 ttn.v3 0.524km -105 -6 868.5MHz, SF10BW125, 4/5CR
2026-05-02 18:06:55 25.25°C 59.125% 3.37V v254 52.0682 / 5.11298 4401 ttn.v3 4.059km -109 -8.75 867.1MHz, SF10BW125, 4/5CR
0.522km -109 -11.2 867.1MHz, SF10BW125, 4/5CR
2.433km -132 -16 867.1MHz, SF10BW125, 4/5CR
2026-05-02 17:50:51 25.5625°C 58.1875% 3.37V v254 52.0682 / 5.11298 4400 ttn.v3 0.522km -107 -3.2 868.1MHz, SF10BW125, 4/5CR
2026-05-02 17:34:46 25.9375°C 59.5% 3.37V v254 52.0682 / 5.11298 4399 ttn.v3 4.059km -110 -9.25 867.9MHz, SF10BW125, 4/5CR
0.522km -111 -14.2 867.9MHz, SF10BW125, 4/5CR
2.433km -133 -17.25 867.9MHz, SF10BW125, 4/5CR
2026-05-02 17:18:41 25.3125°C 60.375% 3.37V v254 52.0682 / 5.11298 4398 ttn.v3 0.522km -105 -8.8 868.5MHz, SF10BW125, 4/5CR
2026-05-02 17:02:36 25.625°C 60.5625% 3.37V v254 52.0682 / 5.11298 4397 ttn.v3 0.522km -107 -6.5 867.7MHz, SF10BW125, 4/5CR
2026-05-02 16:46:31 25.625°C 65.3125% 3.37V v254 52.0682 / 5.11298 4396 ttn.v3 0.522km -106 -7.2 868.3MHz, SF10BW125, 4/5CR
2026-05-02 16:14:21 24.3125°C 65.25% 3.37V v254 52.0682 / 5.11298 4394 ttn.v3 0.522km -107 -3.5 868.1MHz, SF10BW125, 4/5CR
2026-05-02 15:58:17 24.1875°C 67% 3.37V v254 52.0682 / 5.11298 4393 ttn.v3 0.522km -106 -6.8 867.3MHz, SF10BW125, 4/5CR
2026-05-02 15:26:09 23.625°C 69.25% 3.37V v254 52.0682 / 5.11298 4391 ttn.v3 0.522km -109 -8.5 867.1MHz, SF10BW125, 4/5CR
2.433km -129 -11.75 867.1MHz, SF10BW125, 4/5CR
2026-05-02 15:10:06 23.4375°C 69.3125% 3.37V v254 52.0682 / 5.11298 4390 ttn.v3 0.522km -105 -4 868.3MHz, SF10BW125, 4/5CR
2026-05-02 14:37:59 22.625°C 73.125% 3.37V v254 52.0682 / 5.11298 4388 ttn.v3 0.522km -106 -5.8 868.1MHz, SF10BW125, 4/5CR
2026-05-02 14:21:55 22.0625°C 74.3125% 3.37V v254 52.0682 / 5.11298 4387 ttn.v3 0.522km -105 -5 867.7MHz, SF10BW125, 4/5CR
2026-05-02 14:05:52 21.75°C 75.5% 3.37V v254 52.0682 / 5.11298 4386 ttn.v3 0.522km -104 -6.8 868.5MHz, SF10BW125, 4/5CR
- -129 -14.25 868.5MHz, SF10BW125, 4/5CR
2026-05-02 13:17:44 20.8125°C 79% 3.37V v254 52.0682 / 5.11298 4383 ttn.v3 2.433km -126 -10.25 867.3MHz, SF10BW125, 4/5CR
0.522km -106 -13 867.3MHz, SF10BW125, 4/5CR
1.515km -124 -17 867.3MHz, SF10BW125, 4/5CR
2026-05-02 13:01:42 20.625°C 77.5% 3.37V v254 52.0682 / 5.11298 4382 ttn.v3 0.522km -107 -1 868.1MHz, SF10BW125, 4/5CR
2026-05-02 12:45:40 20.3125°C 78.875% 3.37V v254 52.0682 / 5.11298 4381 ttn.v3 4.059km -109 -6 867.1MHz, SF10BW125, 4/5CR
0.522km -107 -7.2 867.1MHz, SF10BW125, 4/5CR
- -130 -14.25 867.1MHz, SF10BW125, 4/5CR
2026-05-02 12:29:38 19.9375°C 80.375% 3.37V v254 52.0682 / 5.11298 4380 ttn.v3 0.522km -106 -6.2 868.5MHz, SF10BW125, 4/5CR
- -108 -14.5 868.5MHz, SF10BW125, 4/5CR
2026-05-02 12:13:36 19.1875°C 83.25% 3.37V v254 52.0682 / 5.11298 4379 ttn.v3 0.522km -109 -7.5 867.9MHz, SF10BW125, 4/5CR
- -115 -15 867.9MHz, SF10BW125, 4/5CR
2.433km -131 -16 867.9MHz, SF10BW125, 4/5CR
2026-05-02 11:57:34 18.625°C 87.125% 3.37V v254 52.0682 / 5.11298 4378 ttn.v3 0.522km -103 -6.2 868.3MHz, SF10BW125, 4/5CR
2026-05-02 11:41:33 18°C 87.4375% 3.37V v254 52.0682 / 5.11298 4377 ttn.v3 0.522km -105 -2.5 867.7MHz, SF10BW125, 4/5CR
2.433km -132 -17.25 867.7MHz, SF10BW125, 4/5CR
2026-05-02 11:25:32 17.75°C 86.625% 3.37V v254 52.0682 / 5.11298 4376 ttn.v3 0.522km -107 -2 868.1MHz, SF10BW125, 4/5CR
- -131 -15.5 868.1MHz, SF10BW125, 4/5CR
2026-05-02 10:53:31 16.4375°C 83.25% 3.37V v254 52.0682 / 5.11298 4374 ttn.v3 0.522km -104 -4 868.5MHz, SF10BW125, 4/5CR
2026-05-02 10:37:31 15.875°C 78.4375% 3.37V v254 52.0682 / 5.11298 4373 ttn.v3 0.522km -105 -4.2 867.3MHz, SF10BW125, 4/5CR
4.059km -105 -7.25 867.3MHz, SF10BW125, 4/5CR
2026-05-02 10:21:31 15.5°C 79.9375% 3.37V v254 52.0682 / 5.11298 4372 ttn.v3 0.522km -105 -5.5 868.3MHz, SF10BW125, 4/5CR
2026-05-02 10:05:31 15°C 79.125% 3.37V v254 52.0682 / 5.11298 4371 ttn.v3 0.522km -106 -6.8 867.1MHz, SF10BW125, 4/5CR
4.059km -103 -12.75 867.1MHz, SF10BW125, 4/5CR
2026-05-02 09:49:31 14.375°C 78.875% 3.37V v254 52.0682 / 5.11298 4370 ttn.v3 0.522km -106 -2.5 868.1MHz, SF10BW125, 4/5CR
- -130 -15.25 868.1MHz, SF10BW125, 4/5CR
2026-05-02 09:33:32 14.0625°C 77.3125% 3.37V v254 52.0682 / 5.11298 4369 ttn.v3 0.522km -107 -11.5 867.9MHz, SF10BW125, 4/5CR
4.059km -111 -16.25 867.9MHz, SF10BW125, 4/5CR
2026-05-02 09:17:33 13.9375°C 75.8125% 3.38V v254 52.0682 / 5.11298 4368 ttn.v3 0.522km -110 -4.5 868.5MHz, SF10BW125, 4/5CR
- -131 -15.75 868.5MHz, SF10BW125, 4/5CR
2026-05-02 09:01:34 13.625°C 75.5% 3.37V v254 52.0682 / 5.11298 4367 ttn.v3 2.433km -131 -16 867.7MHz, SF10BW125, 4/5CR
2026-05-02 08:45:35 13.375°C 73.1875% 3.37V v254 52.0682 / 5.11298 4366 ttn.v3 0.522km -111 -7.2 868.3MHz, SF10BW125, 4/5CR
2026-05-02 08:13:38 13.125°C 70.5625% 3.37V v254 52.0682 / 5.11298 4364 ttn.v3 0.522km -106 -4.2 868.1MHz, SF10BW125, 4/5CR
2026-05-02 07:57:39 12.75°C 71.5% 3.37V v254 52.0682 / 5.11298 4363 ttn.v3 0.522km -104 -4.8 867.3MHz, SF10BW125, 4/5CR
4.059km -107 -11.5 867.3MHz, SF10BW125, 4/5CR
2026-05-02 07:41:41 12.5625°C 71.6875% 3.38V v254 52.0682 / 5.11298 4362 ttn.v3 0.522km -100 -7 868.5MHz, SF10BW125, 4/5CR
2026-05-02 07:25:42 12.375°C 71.6875% 3.37V v254 52.0682 / 5.11298 4361 ttn.v3 0.522km -107 -8.2 867.1MHz, SF10BW125, 4/5CR
2026-05-02 07:09:44 12.0625°C 73.0625% 3.37V v254 52.0682 / 5.11298 4360 ttn.v3 0.522km -105 -7.5 868.3MHz, SF10BW125, 4/5CR
2026-05-02 06:53:45 11.8125°C 74.75% 3.37V v254 52.0682 / 5.11298 4359 ttn.v3 4.059km -109 -12.25 867.9MHz, SF10BW125, 4/5CR
2.433km -129 -13 867.9MHz, SF10BW125, 4/5CR
- -126 -13.5 867.9MHz, SF10BW125, 4/5CR
0.522km -106 -14 867.9MHz, SF10BW125, 4/5CR
- -130 -15.25 867.9MHz, SF10BW125, 4/5CR
2026-05-02 06:37:47 11.5625°C 75.0625% 3.37V v254 52.0682 / 5.11298 4358 ttn.v3 0.522km -105 -2.8 868.1MHz, SF10BW125, 4/5CR
2.433km -128 -13.5 868.1MHz, SF10BW125, 4/5CR
2026-05-02 06:21:50 11.5°C 76.8125% 3.38V v254 52.0682 / 5.11298 4357 ttn.v3 0.522km -105 -5.2 867.7MHz, SF10BW125, 4/5CR
2.433km -127 -10.75 867.7MHz, SF10BW125, 4/5CR
2026-05-02 06:05:52 11.5°C 75.9375% 3.37V v254 52.0682 / 5.11298 4356 ttn.v3 0.522km -106 -11.2 868.5MHz, SF10BW125, 4/5CR
- -128 -15.75 868.5MHz, SF10BW125, 4/5CR
2026-05-02 05:17:57 11.4375°C 79.75% 3.37V v254 52.0682 / 5.11298 4353 ttn.v3 0.522km -104 -4.2 867.3MHz, SF10BW125, 4/5CR
2.433km -132 -16.5 867.3MHz, SF10BW125, 4/5CR
2026-05-02 05:01:59 11.75°C 76.4375% 3.37V v254 52.0682 / 5.11298 4352 ttn.v3 0.522km -106 -3.8 868.1MHz, SF10BW125, 4/5CR
- -129 -13.75 868.1MHz, SF10BW125, 4/5CR
2026-05-02 04:46:01 12.0625°C 75% 3.37V v254 52.0682 / 5.11298 4351 ttn.v3 0.522km -104 -9.8 867.1MHz, SF10BW125, 4/5CR
2.433km -133 -16.5 867.1MHz, SF10BW125, 4/5CR
2026-05-02 04:30:03 12.25°C 73.0625% 3.37V v254 52.0682 / 5.11298 4350 ttn.v3 0.522km -104 -9.8 868.5MHz, SF10BW125, 4/5CR
- -130 -15.25 868.5MHz, SF10BW125, 4/5CR
2026-05-02 04:14:04 12.25°C 75.5625% 3.37V v254 52.0682 / 5.11298 4349 ttn.v3 0.522km -105 -12.2 867.9MHz, SF10BW125, 4/5CR
2.433km -132 -15.75 867.9MHz, SF10BW125, 4/5CR
2026-05-02 03:58:05 12.625°C 73% 3.37V v254 52.0682 / 5.11298 4348 ttn.v3 0.522km -105 -7.8 868.3MHz, SF10BW125, 4/5CR
2026-05-02 03:42:07 12.8125°C 72.6875% 3.37V v254 52.0682 / 5.11298 4347 ttn.v3 0.522km -105 -5 867.7MHz, SF10BW125, 4/5CR
2026-05-02 03:26:08 12.8125°C 73.4375% 3.37V v254 52.0682 / 5.11298 4346 ttn.v3 0.522km -105 -4 868.1MHz, SF10BW125, 4/5CR
2026-05-02 03:10:09 13.0625°C 71.8125% 3.37V v254 52.0682 / 5.11298 4345 ttn.v3 0.522km -106 -6.2 867.5MHz, SF10BW125, 4/5CR
2026-05-02 02:54:10 13.5°C 70.125% 3.37V v254 52.0682 / 5.11298 4344 ttn.v3 0.522km -105 -8.5 868.5MHz, SF10BW125, 4/5CR
- -130 -15.75 868.5MHz, SF10BW125, 4/5CR
2026-05-02 02:38:11 13.5625°C 70.4375% 3.37V v254 52.0682 / 5.11298 4343 ttn.v3 0.522km -105 -6.5 867.3MHz, SF10BW125, 4/5CR
- -129 -15.75 867.3MHz, SF10BW125, 4/5CR
2.433km -132 -16.75 867.3MHz, SF10BW125, 4/5CR
2026-05-02 02:22:12 13.875°C 69% 3.37V v254 52.0682 / 5.11298 4342 ttn.v3 0.522km -95 -14 868.3MHz, SF10BW125, 4/5CR
2026-05-02 02:06:12 14.1875°C 67% 3.37V v254 52.0682 / 5.11298 4341 ttn.v3 0.522km -106 -10.2 867.1MHz, SF10BW125, 4/5CR
4.059km -108 -12.25 867.1MHz, SF10BW125, 4/5CR
2.433km -132 -17 867.1MHz, SF10BW125, 4/5CR
2026-05-02 01:50:13 14.3125°C 67.25% 3.37V v254 52.0682 / 5.11298 4340 ttn.v3 0.522km -104 -5.8 868.1MHz, SF10BW125, 4/5CR
- -129 -14 868.1MHz, SF10BW125, 4/5CR
2026-05-02 01:34:13 14.8125°C 64.625% 3.37V v254 52.0682 / 5.11298 4339 ttn.v3 0.522km -105 -12 867.9MHz, SF10BW125, 4/5CR
2026-05-02 01:18:14 15.4375°C 61.1875% 3.37V v254 52.0682 / 5.11298 4338 ttn.v3 0.522km -106 -11.2 868.5MHz, SF10BW125, 4/5CR
- -131 -16 868.5MHz, SF10BW125, 4/5CR
2026-05-02 01:02:14 15.5625°C 60.8125% 3.37V v254 52.0682 / 5.11298 4337 ttn.v3 0.522km -104 -5 867.7MHz, SF10BW125, 4/5CR
4.059km -83 -10 867.7MHz, SF10BW125, 4/5CR
2.433km -130 -14 867.7MHz, SF10BW125, 4/5CR
2026-05-02 00:30:13 16.4375°C 58.25% 3.37V v254 52.0682 / 5.11298 4335 ttn.v3 0.522km -106 -8.2 867.5MHz, SF10BW125, 4/5CR
2026-05-02 00:14:13 16.8125°C 56.5% 3.37V v254 52.0682 / 5.11298 4334 ttn.v3 0.522km -106 -4.8 868.1MHz, SF10BW125, 4/5CR
- -128 -15 868.1MHz, SF10BW125, 4/5CR
2026-05-01 23:58:12 17.125°C 56.5625% 3.37V v254 52.0682 / 5.11298 4333 ttn.v3 0.522km -106 -8.8 867.3MHz, SF10BW125, 4/5CR
- -130 -16 867.3MHz, SF10BW125, 4/5CR
2026-05-01 23:42:11 17.6875°C 53.9375% 3.37V v254 52.0682 / 5.11298 4332 ttn.v3 0.522km -106 -13.5 868.5MHz, SF10BW125, 4/5CR
- -130 -16.5 868.5MHz, SF10BW125, 4/5CR
2026-05-01 23:26:10 18°C 51.5% 3.37V v254 52.0682 / 5.11298 4331 ttn.v3 4.059km -110 -5.5 867.1MHz, SF10BW125, 4/5CR
0.522km -107 -14 867.1MHz, SF10BW125, 4/5CR
- -133 -16 867.1MHz, SF10BW125, 4/5CR
2026-05-01 23:10:08 18.3125°C 51.625% 3.37V v254 52.0682 / 5.11298 4330 ttn.v3 0.522km -106 -14.5 868.3MHz, SF10BW125, 4/5CR
2026-05-01 22:54:07 18.75°C 50.3125% 3.37V v254 52.0682 / 5.11298 4329 ttn.v3 0.522km -107 -15.2 867.9MHz, SF10BW125, 4/5CR
4.059km -111 -15.25 867.9MHz, SF10BW125, 4/5CR
2026-05-01 22:38:05 19.0625°C 51.6875% 3.37V v254 52.0682 / 5.11298 4328 ttn.v3 0.522km -107 -6.5 868.1MHz, SF10BW125, 4/5CR
- -128 -13.5 868.1MHz, SF10BW125, 4/5CR
2026-05-01 22:22:03 19.6875°C 49% 3.37V v254 52.0682 / 5.11298 4327 ttn.v3 0.522km -105 -7 867.7MHz, SF10BW125, 4/5CR
2.433km -131 -15.5 867.7MHz, SF10BW125, 4/5CR
1.515km -125 -17 867.7MHz, SF10BW125, 4/5CR
2026-05-01 22:06:02 20.0625°C 47.6875% 3.37V v254 52.0682 / 5.11298 4326 ttn.v3 0.522km -107 -15.8 868.5MHz, SF10BW125, 4/5CR
- -130 -16 868.5MHz, SF10BW125, 4/5CR
2026-05-01 21:49:59 20.625°C 46.1875% 3.37V v254 52.0682 / 5.11298 4325 ttn.v3 0.522km -105 -8.8 867.5MHz, SF10BW125, 4/5CR
2026-05-01 21:33:57 20.9375°C 46.0625% 3.37V v254 52.0682 / 5.11298 4324 ttn.v3 0.522km -103 -13.8 868.3MHz, SF10BW125, 4/5CR
2026-05-01 21:17:54 21.5°C 45.5625% 3.37V v254 52.0682 / 5.11298 4323 ttn.v3 0.522km -106 -11.2 867.3MHz, SF10BW125, 4/5CR
2026-05-01 21:01:51 21.875°C 46.4375% 3.37V v254 52.0682 / 5.11298 4322 ttn.v3 0.522km -107 -5.5 868.1MHz, SF10BW125, 4/5CR
- -129 -14.5 868.1MHz, SF10BW125, 4/5CR
2026-05-01 20:45:48 22.75°C 41.75% 3.37V v254 52.0682 / 5.11298 4321 ttn.v3 0.522km -106 -10.5 867.1MHz, SF10BW125, 4/5CR
2026-05-01 20:29:44 23.4375°C 39.0625% 3.37V v254 52.0682 / 5.11298 4320 ttn.v3 - -131 -16.75 868.5MHz, SF10BW125, 4/5CR
0.522km -105 -17 868.5MHz, SF10BW125, 4/5CR
2026-05-01 20:13:40 24.4375°C 36.625% 3.37V v254 52.0682 / 5.11298 4319 ttn.v3 0.522km -109 -13 867.9MHz, SF10BW125, 4/5CR
- -125 -13.25 867.9MHz, SF10BW125, 4/5CR
2026-05-01 19:41:31 25.0625°C 31.875% 3.37V v254 52.0682 / 5.11298 4317 ttn.v3 0.522km -106 -4.5 867.7MHz, SF10BW125, 4/5CR
2.433km -131 -15 867.7MHz, SF10BW125, 4/5CR
2026-05-01 19:25:26 25.3125°C 31.5625% 3.37V v254 52.0682 / 5.11298 4316 ttn.v3 0.522km -107 -5 868.1MHz, SF10BW125, 4/5CR
2026-05-01 19:09:21 25.75°C 30.3125% 3.37V v254 52.0682 / 5.11298 4315 ttn.v3 0.522km -105 -14.2 867.5MHz, SF10BW125, 4/5CR
2026-05-01 18:53:16 25.875°C 30.1875% 3.37V v254 52.0682 / 5.11298 4314 ttn.v3 - -129 -15.5 868.5MHz, SF10BW125, 4/5CR
2026-05-01 18:37:11 26.5°C 29.1875% 3.37V v254 52.0682 / 5.11298 4313 ttn.v3 0.522km -109 -10.8 867.3MHz, SF10BW125, 4/5CR
2026-05-01 18:04:59 27.625°C 28.3125% 3.37V v254 52.0682 / 5.11298 4311 ttn.v3 0.522km -110 -10 867.1MHz, SF10BW125, 4/5CR
2026-05-01 17:48:53 27.5625°C 27.6875% 3.37V v254 52.0682 / 5.11298 4310 ttn.v3 0.522km -106 -4.5 868.1MHz, SF10BW125, 4/5CR
2026-05-01 17:32:47 28°C 27.5625% 3.37V v254 52.0682 / 5.11298 4309 ttn.v3 0.522km -107 -10 867.9MHz, SF10BW125, 4/5CR
- -130 -15 867.9MHz, SF10BW125, 4/5CR
2026-05-01 17:16:41 28.1875°C 28.8125% 3.37V v254 52.0682 / 5.11298 4308 ttn.v3 - -128 -15.75 868.5MHz, SF10BW125, 4/5CR
2026-05-01 17:00:35 27.9375°C 27.8125% 3.37V v254 52.0682 / 5.11298 4307 ttn.v3 0.522km -106 -7 867.7MHz, SF10BW125, 4/5CR
2026-05-01 16:46:35 27.9375°C 29.875% 3.36V v254 52.0682 / 5.11298 4306 ttn.v3 0.522km -105 -10.2 868.3MHz, SF12BW125, 4/5CR
2026-05-01 16:28:32 27.75°C 29.4375% 3.37V v254 52.0683 / 5.11316 4305 ttn.v3 0.506km -106 -10 867.5MHz, SF10BW125, 4/5CR
2026-05-01 16:12:26 27.125°C 29.625% 3.37V v254 52.0683 / 5.11316 4304 ttn.v3 0.506km -106 -1.5 868.1MHz, SF10BW125, 4/5CR
4.043km -107 -10 868.1MHz, SF10BW125, 4/5CR
- -126 -11.5 868.1MHz, SF10BW125, 4/5CR
2.446km -130 -15.25 868.1MHz, SF10BW125, 4/5CR
2026-05-01 15:56:20 26.9375°C 29.125% 3.37V v254 52.0683 / 5.11316 4303 ttn.v3 2.446km -128 -12 867.3MHz, SF10BW125, 4/5CR
0.506km -107 -14.2 867.3MHz, SF10BW125, 4/5CR
2026-05-01 15:40:15 26.875°C 28.6875% 3.37V v254 52.0683 / 5.11316 4302 ttn.v3 0.506km -106 -9 868.5MHz, SF10BW125, 4/5CR
2026-05-01 15:24:10 27°C 31.625% 3.37V v254 52.0683 / 5.11316 4301 ttn.v3 4.043km -109 -1 867.1MHz, SF10BW125, 4/5CR
0.506km -107 -11.8 867.1MHz, SF10BW125, 4/5CR
2026-05-01 14:52:00 25.6875°C 31% 3.37V v254 52.0683 / 5.11316 4299 ttn.v3 0.506km -107 -7.5 867.9MHz, SF10BW125, 4/5CR
2026-05-01 14:35:55 25.5625°C 31.5% 3.37V v254 52.0683 / 5.11316 4298 ttn.v3 0.506km -106 -3.5 868.1MHz, SF10BW125, 4/5CR
2026-05-01 14:19:50 24.625°C 32% 3.37V v254 52.0683 / 5.11316 4297 ttn.v3 0.506km -105 -3.8 867.7MHz, SF10BW125, 4/5CR
2.446km -126 -11.25 867.7MHz, SF10BW125, 4/5CR
2026-05-01 13:47:42 23.3125°C 32.75% 3.37V v254 52.0683 / 5.11316 4295 ttn.v3 0.506km -105 -14.2 867.5MHz, SF10BW125, 4/5CR
2026-05-01 12:59:33 21.25°C 37.3125% 3.37V v254 52.0683 / 5.11316 4292 ttn.v3 0.506km -107 -7.8 868.1MHz, SF10BW125, 4/5CR
2026-05-01 12:43:31 20.6875°C 36.9375% 3.37V v254 52.0683 / 5.11316 4291 ttn.v3 0.506km -107 -8 867.1MHz, SF10BW125, 4/5CR
2026-05-01 12:11:27 19.5625°C 39.1875% 3.37V v254 52.0683 / 5.11316 4289 ttn.v3 4.043km -110 -11.5 867.9MHz, SF10BW125, 4/5CR
- -132 -16.5 867.9MHz, SF10BW125, 4/5CR
2026-05-01 11:55:25 19°C 39.25% 3.37V v254 52.0683 / 5.11316 4288 ttn.v3 0.506km -105 -11 868.3MHz, SF10BW125, 4/5CR
2026-05-01 11:39:24 18.1875°C 40.5% 3.37V v254 52.0683 / 5.11316 4287 ttn.v3 4.043km -105 -3 867.7MHz, SF10BW125, 4/5CR
0.506km -105 -7.2 867.7MHz, SF10BW125, 4/5CR
- -128 -13.75 867.7MHz, SF10BW125, 4/5CR
2026-05-01 11:23:23 17.5625°C 41.5625% 3.37V v254 52.0683 / 5.11316 4286 ttn.v3 4.043km -110 -15 868.1MHz, SF10BW125, 4/5CR
2026-05-01 10:51:22 16.5°C 44.5% 3.37V v254 52.0683 / 5.11316 4284 ttn.v3 0.506km -104 -9.5 868.5MHz, SF10BW125, 4/5CR
- -129 -14.75 868.5MHz, SF10BW125, 4/5CR

Message count: 200
Node count: 1

Messages per node

Number of messages in list aboveNodes
200

Statistics per gateway

GatewayNumber of messagesNumber of nodesNodes
1881 (0.506km)
521
421 (4.043km)
281 (2.446km)
41
21 (1.515km)
21

Filter by dataset